Portada
METAR-TAF:

METAR-TAF

Aeropuertos :

Aeropuerto Internacional Camilo Daza

Cúcuta, Colombia

latitud: 07-56N, longitud: 072-31W, altitud: 250 m

Observación

El informe se hizo hace 45 minutos, a las 22:00 UTC
Viento 7 kt del norte
Temperatura 30°C
Humedad 52%
Presión 1013 hPa
Visibilidad: 8000 m
Nubes dispersas a una altura de 2300 ft

METAR: SKCC 222200Z 36007KT 8000 SCT023 30/19 A2990 RMK HZ

Hora: 17:45 (22:45 UTC)

Pronóstico

El informe se hizo hace 5 horas y 45 minutos, a las 17:00 UTC
Pronóstico válido del 22 a las 18 UTC al 23 a las 18 UTC
Viento 8 kt del norte
Visibilidad: 8000 m
Nubes dispersas a una altura de 2000 ft
Temporalmente
del 23 a las 01 UTC al 23 a las 08 UTC
Viento 2 kt con dirección variable

TAF: SKCC 221700Z 2218/2318 36008KT 8000 SCT020 TEMPO 2301/2308 VRB02KT TX31/2218Z TN23/2311Z

Observaciones y pronósticos meteorológicos de más de 4000 aeropuertos (mensajes METAR y TAF).

Los puntos amarillos y rojos representan las estaciones disponibles.

Ponga el ratón en el punto deseado para ver el nombre de la estación.

Haga clic para ver las observaciones y los pronósticos meteorológicos.

Para cambiar el mapa : haga clic en los botones verdes con una cruz de color negro para hacer un zoom, en el botón verde con un guión para alejar o en las flechas verdes para mapas adyacentes.


METAR-TAF: